Kastav — 9AA6417 — position and weather

sailwx.info

Track history (hours):
 
Tides and Currents Weather Stations Pressure Air Temp Water Temp Dewpoint Dewpoint Depression Visibility Wind Speed Wind Dir Waves Ship Positions

Kastav

Last reported at 2015-Mar-22 08:20 UTC. Time now 2015-Mar-30 05:55 UTC.
Position N 18°10' W 064°56'.

Length 195 m; draft 11.6 m.

Type: Ship. MMSI: 238257000.

Date/timePositionNaut miles runAvg speedWind from/ knotsBaromVisibWave heightAir tempDewpointWater temp
2015-Mar-22 08:20N 18°10' W 064°56'  
2015-Mar-16 13:07N 29°06' W 094°25'711.7
2015-Mar-16 12:33N 29°11' W 094°30'1110.7
2015-Mar-16 11:33N 29°19' W 094°38'1111.1
2015-Mar-16 10:33N 29°25' W 094°49'1110.9
2015-Mar-16 09:33N 29°34' W 094°55'9 8.9
2015-Mar-16 08:33N 29°42' W 095°00'6 5.8
2015-Mar-16 07:33N 29°45' W 095°06'2 2.0
2015-Mar-16 06:31N 29°44' W 095°08'0 0.0
2015-Mar-14 03:28N 29°44' W 095°08'2 2.4
2015-Mar-14 02:33N 29°45' W 095°06'6 5.6
2015-Mar-14 01:33N 29°42' W 095°00'1110.3
2015-Mar-14 00:32N 29°33' W 094°54'1212.1
2015-Mar-13 23:32N 29°22' W 094°48'4 0.4
2015-Mar-13 14:27N 29°21' W 094°44'0 0.0
2015-Mar-13 11:14N 29°21' W 094°43'0 0.0
2015-Mar-13 09:14N 29°21' W 094°43'0 0.0
2015-Mar-13 06:29N 29°21' W 094°43'0 0.0
2015-Mar-12 23:08N 29°21' W 094°43'  
Track history (hours):
 
Tides and Currents Weather Stations Pressure Air Temp Water Temp Dewpoint Dewpoint Depression Visibility Wind Speed Wind Dir Waves Ship Positions

Kastav

Last reported at 2015-Mar-22 08:20 UTC. Time now 2015-Mar-30 05:55 UTC.
Position N 18°10' W 064°56'.

Length 195 m; draft 11.6 m.

Type: Ship. MMSI: 238257000.

Date/timePositionNaut miles runAvg speedWind from/ knotsBaromVisibWave heightAir tempDewpointWater temp
2015-Mar-22 08:20N 18°10' W 064°56'  
2015-Mar-16 13:07N 29°06' W 094°25'711.7
2015-Mar-16 12:33N 29°11' W 094°30'1110.7
2015-Mar-16 11:33N 29°19' W 094°38'1111.1
2015-Mar-16 10:33N 29°25' W 094°49'1110.9
2015-Mar-16 09:33N 29°34' W 094°55'9 8.9
2015-Mar-16 08:33N 29°42' W 095°00'6 5.8
2015-Mar-16 07:33N 29°45' W 095°06'2 2.0
2015-Mar-16 06:31N 29°44' W 095°08'0 0.0
2015-Mar-14 03:28N 29°44' W 095°08'2 2.4
2015-Mar-14 02:33N 29°45' W 095°06'6 5.6
2015-Mar-14 01:33N 29°42' W 095°00'1110.3
2015-Mar-14 00:32N 29°33' W 094°54'1212.1
2015-Mar-13 23:32N 29°22' W 094°48'4 0.4
2015-Mar-13 14:27N 29°21' W 094°44'0 0.0
2015-Mar-13 11:14N 29°21' W 094°43'0 0.0
2015-Mar-13 09:14N 29°21' W 094°43'0 0.0
2015-Mar-13 06:29N 29°21' W 094°43'0 0.0
2015-Mar-12 23:08N 29°21' W 094°43'  

Dump ship's entire track history